Time;durP1;ratioP1;P1;durP2;ratioP2;P2;SDS_P1;SDS_P2;PMS_P1;PMS_P2;Temp;Humidity;BMP_temperature;BMP_pressure;BME280_temperature;BME280_humidity;BME280_pressure;Samples;Min_cycle;Max_cycle;Signal;HPM_P1;HPM_P2
2023/07/12 00:01:56;;;;;;;8.93;3.60;;;18.40;81.50;;;;;;5086281;28;20036;-74
2023/07/12 00:04:22;;;;;;;10.95;4.00;;;18.50;82.50;;;;;;5107684;27;20027;-74
2023/07/12 00:06:47;;;;;;;9.32;3.60;;;18.50;81.80;;;;;;5124885;27;20106;-74
2023/07/12 00:09:14;;;;;;;9.45;3.83;;;18.60;82.80;;;;;;5107596;28;20055;-74
2023/07/12 00:11:40;;;;;;;10.88;4.00;;;18.60;83.10;;;;;;5108489;27;20516;-75
2023/07/12 00:14:06;;;;;;;12.40;3.95;;;18.60;82.90;;;;;;5109924;28;20122;-74
2023/07/12 00:16:37;;;;;;;10.50;3.85;;;18.50;83.00;;;;;;5108558;27;20488;-73
2023/07/12 00:19:05;;;;;;;12.45;4.40;;;18.40;83.30;;;;;;5109704;28;20031;-74
2023/07/12 00:21:32;;;;;;;10.50;3.30;;;18.60;84.00;;;;;;5090347;28;20093;-76
2023/07/12 00:24:00;;;;;;;10.27;3.65;;;18.60;84.10;;;;;;5108931;28;20023;-73
2023/07/12 00:26:26;;;;;;;9.45;3.35;;;18.60;83.50;;;;;;5102833;27;20027;-73
2023/07/12 00:28:53;;;;;;;8.23;3.15;;;18.50;84.20;;;;;;5098274;28;20048;-73
2023/07/12 00:31:18;;;;;;;11.63;3.85;;;18.30;84.20;;;;;;5095248;27;20111;-73
2023/07/12 00:33:44;;;;;;;12.88;3.90;;;18.40;84.40;;;;;;5101213;28;20429;-75
2023/07/12 00:36:18;;;;;;;10.93;3.35;;;18.40;84.10;;;;;;5107545;28;20081;-74
2023/07/12 00:38:43;;;;;;;13.23;3.55;;;18.30;84.10;;;;;;5090626;28;20054;-74
2023/07/12 00:41:49;;;;;;;11.65;3.75;;;18.30;84.50;;;;;;5109076;27;20446;-74
2023/07/12 00:44:25;;;;;;;11.13;3.70;;;18.30;84.50;;;;;;5106382;27;20054;-76
2023/07/12 00:46:57;;;;;;;12.07;4.13;;;18.10;84.80;;;;;;5106887;28;20547;-75
2023/07/12 00:49:23;;;;;;;13.18;3.88;;;18.10;85.10;;;;;;5093031;28;20020;-74
2023/07/12 00:52:13;;;;;;;13.13;3.97;;;18.20;85.00;;;;;;5082452;28;20019;-73
2023/07/12 00:54:58;;;;;;;12.02;3.60;;;18.30;85.40;;;;;;5104118;27;20084;-73
2023/07/12 00:57:25;;;;;;;;;;;18.10;85.30;;;;;;5091083;28;20044;-73
2023/07/12 01:00:01;;;;;;;11.43;4.03;;;18.10;84.70;;;;;;5108250;28;20249;-73
2023/07/12 01:02:26;;;;;;;11.32;4.00;;;18.10;85.50;;;;;;5094894;28;20066;-74
2023/07/12 01:04:57;;;;;;;13.80;4.40;;;18.00;85.90;;;;;;5107089;27;20480;-73
2023/07/12 01:07:24;;;;;;;12.93;4.30;;;18.10;85.90;;;;;;5108006;28;20244;-73
2023/07/12 01:09:49;;;;;;;10.90;3.63;;;18.10;85.50;;;;;;5107991;28;20020;-74
2023/07/12 01:12:15;;;;;;;8.93;3.92;;;18.00;85.30;;;;;;5107442;27;20084;-74
2023/07/12 01:14:43;;;;;;;12.70;4.43;;;17.90;85.50;;;;;;5122983;27;20034;-77
2023/07/12 01:17:09;;;;;;;13.18;3.72;;;17.80;85.30;;;;;;5106503;27;20043;-73
2023/07/12 01:19:39;;;;;;;13.93;4.10;;;17.90;85.60;;;;;;5081879;28;20054;-74
2023/07/12 01:22:05;;;;;;;12.77;4.07;;;17.90;85.50;;;;;;5106819;27;20024;-74
2023/07/12 01:24:31;;;;;;;11.90;3.92;;;18.00;85.60;;;;;;5108156;28;20106;-76
2023/07/12 01:27:10;;;;;;;10.95;3.88;;;17.90;85.10;;;;;;5107465;27;20126;-74
2023/07/12 01:29:36;;;;;;;12.93;3.90;;;17.80;84.80;;;;;;5101349;28;20107;-73
2023/07/12 01:32:02;;;;;;;12.68;4.07;;;17.80;85.40;;;;;;5107950;28;20123;-75
2023/07/12 01:34:29;;;;;;;10.68;3.55;;;17.80;85.50;;;;;;5100195;28;20460;-74
2023/07/12 01:36:55;;;;;;;9.38;3.92;;;17.80;85.40;;;;;;5099374;28;20036;-74
2023/07/12 01:39:21;;;;;;;11.43;4.10;;;17.70;85.60;;;;;;5095888;28;20530;-73
2023/07/12 01:41:47;;;;;;;10.75;3.60;;;17.70;85.80;;;;;;5108961;27;20026;-73
2023/07/12 01:44:12;;;;;;;10.63;3.78;;;17.70;85.60;;;;;;5110419;28;20028;-76
2023/07/12 01:46:38;;;;;;;11.18;3.70;;;17.70;85.60;;;;;;5089102;28;20047;-73
2023/07/12 01:49:04;;;;;;;11.52;3.83;;;17.70;85.60;;;;;;5089236;28;20026;-75
2023/07/12 01:51:29;;;;;;;9.60;4.18;;;17.70;85.50;;;;;;5108016;28;20040;-73
2023/07/12 01:53:55;;;;;;;10.82;3.50;;;17.80;85.40;;;;;;5109151;27;20043;-73
2023/07/12 01:56:21;;;;;;;10.73;3.53;;;17.80;85.30;;;;;;5090852;28;20043;-75
2023/07/12 01:58:47;;;;;;;12.80;3.42;;;17.80;85.00;;;;;;5090704;28;20015;-73
2023/07/12 02:01:13;;;;;;;9.80;3.50;;;17.70;85.00;;;;;;5106006;27;20036;-75
2023/07/12 02:03:38;;;;;;;12.32;3.35;;;17.70;84.90;;;;;;5107250;28;20227;-73
2023/07/12 02:06:04;;;;;;;9.15;3.70;;;17.60;85.00;;;;;;5127452;27;20067;-74
2023/07/12 02:08:30;;;;;;;10.68;3.67;;;17.60;85.20;;;;;;5090552;28;20100;-73
2023/07/12 02:10:55;;;;;;;10.05;3.25;;;17.60;85.20;;;;;;5092579;27;20038;-74
2023/07/12 02:13:22;;;;;;;12.10;3.67;;;17.50;85.20;;;;;;5107076;28;20028;-74
2023/07/12 02:15:48;;;;;;;12.80;4.43;;;17.50;85.50;;;;;;5106745;27;20375;-75
2023/07/12 02:18:14;;;;;;;8.52;3.92;;;17.50;85.40;;;;;;5090454;28;20023;-74
2023/07/12 02:20:40;;;;;;;12.05;3.92;;;17.40;85.30;;;;;;5087579;28;20050;-75
2023/07/12 02:23:07;;;;;;;13.75;4.15;;;17.40;85.40;;;;;;5105875;28;20030;-75
2023/07/12 02:25:33;;;;;;;9.63;3.40;;;17.30;85.50;;;;;;5087588;28;20114;-73
2023/07/12 02:27:59;;;;;;;10.98;3.58;;;17.40;85.30;;;;;;5113125;27;20106;-74
2023/07/12 02:30:26;;;;;;;11.93;3.83;;;17.40;85.40;;;;;;5106531;27;20093;-73
2023/07/12 02:32:53;;;;;;;11.25;3.45;;;17.40;85.60;;;;;;5096961;28;20384;-73
2023/07/12 02:35:21;;;;;;;14.05;4.18;;;17.40;85.60;;;;;;5106294;28;20061;-73
2023/07/12 02:37:47;;;;;;;10.15;3.45;;;17.40;85.30;;;;;;5096474;28;20063;-76
2023/07/12 02:40:13;;;;;;;13.70;3.80;;;17.30;85.50;;;;;;5084014;27;20704;-73
2023/07/12 02:42:39;;;;;;;13.05;4.13;;;17.40;85.50;;;;;;5112698;27;20024;-73
2023/07/12 02:45:06;;;;;;;10.73;4.00;;;17.40;85.30;;;;;;5114802;27;20020;-74
2023/07/12 02:47:32;;;;;;;10.40;3.83;;;17.40;85.30;;;;;;5110902;28;20413;-74
2023/07/12 02:49:58;;;;;;;12.90;4.10;;;17.40;85.20;;;;;;5107444;27;20513;-73
2023/07/12 02:52:23;;;;;;;10.88;3.63;;;17.40;85.20;;;;;;5109532;27;20098;-74
2023/07/12 02:54:49;;;;;;;13.05;3.90;;;17.40;85.30;;;;;;5106435;27;20038;-74
2023/07/12 02:57:16;;;;;;;9.40;3.67;;;17.50;85.20;;;;;;5105890;27;20050;-73
2023/07/12 02:59:42;;;;;;;12.70;4.00;;;17.50;85.10;;;;;;5106611;28;20124;-74
2023/07/12 03:02:09;;;;;;;13.23;3.63;;;17.40;85.10;;;;;;5108489;27;20350;-73
2023/07/12 03:04:36;;;;;;;9.93;3.75;;;17.40;85.40;;;;;;5102471;28;20035;-73
2023/07/12 03:07:02;;;;;;;11.65;3.42;;;17.50;85.20;;;;;;5109195;27;20030;-74
2023/07/12 03:09:28;;;;;;;12.00;4.03;;;17.50;85.00;;;;;;5106286;28;20094;-74
2023/07/12 03:11:54;;;;;;;10.05;3.67;;;17.40;85.10;;;;;;5105793;27;20040;-73
2023/07/12 03:14:21;;;;;;;11.43;3.72;;;17.30;85.40;;;;;;5106350;28;20024;-74
2023/07/12 03:16:47;;;;;;;9.98;3.67;;;17.30;85.50;;;;;;5104811;28;20088;-75
2023/07/12 03:19:14;;;;;;;14.98;4.43;;;17.20;85.60;;;;;;5117205;28;20024;-75
2023/07/12 03:21:40;;;;;;;12.98;3.88;;;17.10;85.60;;;;;;5105553;27;20070;-75
2023/07/12 03:24:06;;;;;;;11.15;4.05;;;17.10;85.90;;;;;;5106220;28;20505;-74
2023/07/12 03:26:32;;;;;;;12.02;4.05;;;17.10;85.90;;;;;;5087219;28;20028;-74
2023/07/12 03:28:58;;;;;;;11.45;4.57;;;17.20;85.80;;;;;;5106306;28;20035;-74
2023/07/12 03:31:26;;;;;;;13.57;3.80;;;17.20;86.20;;;;;;5105042;27;20205;-74
2023/07/12 03:33:52;;;;;;;12.05;3.95;;;17.20;86.10;;;;;;5105705;28;20087;-74
2023/07/12 03:36:19;;;;;;;17.05;4.18;;;17.30;86.10;;;;;;5087309;28;20027;-74
2023/07/12 03:38:44;;;;;;;14.85;4.10;;;17.30;86.20;;;;;;5108613;27;20059;-75
2023/07/12 03:41:11;;;;;;;15.10;5.13;;;17.30;86.20;;;;;;5109453;27;20031;-73
2023/07/12 03:43:37;;;;;;;8.50;4.30;;;17.40;86.00;;;;;;5109973;28;20024;-75
2023/07/12 03:46:04;;;;;;;11.80;3.90;;;17.40;86.00;;;;;;5109063;28;20160;-77
2023/07/12 03:48:30;;;;;;;15.23;4.47;;;17.40;86.10;;;;;;5110060;28;20548;-74
2023/07/12 03:50:56;;;;;;;15.73;4.38;;;17.40;86.00;;;;;;5108374;27;20082;-76
2023/07/12 03:53:23;;;;;;;12.57;3.88;;;17.30;86.00;;;;;;5104115;28;20665;-74
2023/07/12 03:55:49;;;;;;;14.10;4.05;;;17.30;86.00;;;;;;5109146;27;20036;-75
2023/07/12 03:58:18;;;;;;;9.35;3.63;;;17.40;85.90;;;;;;5109834;28;20153;-75
2023/07/12 04:00:46;;;;;;;12.48;4.90;;;17.40;85.80;;;;;;5107404;27;20541;-74
2023/07/12 04:03:12;;;;;;;14.40;4.97;;;17.40;85.70;;;;;;5110180;28;20031;-76
2023/07/12 04:05:39;;;;;;;10.18;4.00;;;17.40;85.70;;;;;;5108556;27;20031;-74
2023/07/12 04:08:05;;;;;;;13.70;4.40;;;17.50;85.60;;;;;;5109770;28;20034;-74
2023/07/12 04:10:32;;;;;;;13.57;4.40;;;17.50;85.30;;;;;;5108781;27;20024;-78
2023/07/12 04:12:58;;;;;;;13.00;4.75;;;17.50;85.40;;;;;;5109986;27;20551;-74
2023/07/12 04:15:24;;;;;;;13.43;5.07;;;17.50;85.50;;;;;;5109179;27;20408;-75
2023/07/12 04:17:50;;;;;;;15.57;4.78;;;17.50;85.40;;;;;;5109563;28;20016;-75
2023/07/12 04:20:16;;;;;;;13.95;5.40;;;17.50;85.20;;;;;;5108879;27;20051;-74
2023/07/12 04:22:42;;;;;;;15.73;4.70;;;17.50;85.20;;;;;;5108938;27;20032;-75
2023/07/12 04:25:09;;;;;;;12.93;4.88;;;17.50;85.10;;;;;;5107964;27;20020;-74
2023/07/12 04:27:37;;;;;;;14.52;4.40;;;17.50;85.20;;;;;;5109156;28;20148;-74
2023/07/12 04:30:04;;;;;;;16.00;4.28;;;17.60;85.00;;;;;;5107946;28;20051;-74
2023/07/12 04:32:30;;;;;;;15.55;4.32;;;17.70;84.90;;;;;;5090337;28;20268;-75
2023/07/12 04:34:56;;;;;;;13.20;4.38;;;17.60;84.40;;;;;;5107506;27;20072;-74
2023/07/12 04:37:22;;;;;;;14.15;4.38;;;17.60;84.50;;;;;;5108870;28;20035;-74
2023/07/12 04:39:48;;;;;;;11.43;4.20;;;17.60;84.40;;;;;;5118929;27;20076;-75
2023/07/12 04:42:14;;;;;;;10.95;4.22;;;17.60;84.30;;;;;;5108538;27;20032;-75
2023/07/12 04:44:40;;;;;;;10.48;3.85;;;17.70;84.10;;;;;;5107520;28;20024;-75
2023/07/12 04:47:07;;;;;;;12.23;4.38;;;17.70;83.90;;;;;;5107991;28;20148;-75
2023/07/12 04:49:32;;;;;;;15.15;4.57;;;17.80;83.80;;;;;;5106891;28;20524;-75
2023/07/12 04:51:58;;;;;;;15.90;4.65;;;17.80;83.80;;;;;;5109392;27;20038;-75
2023/07/12 04:54:24;;;;;;;18.17;4.70;;;17.90;83.20;;;;;;5112344;27;20128;-75
2023/07/12 04:56:49;;;;;;;14.25;3.97;;;17.90;83.10;;;;;;5111352;27;20180;-75
2023/07/12 04:59:15;;;;;;;11.68;4.00;;;18.00;82.90;;;;;;5124136;27;20027;-75
2023/07/12 05:01:41;;;;;;;13.60;4.35;;;18.00;82.60;;;;;;5107955;27;20039;-75
2023/07/12 05:04:07;;;;;;;18.20;4.72;;;18.00;82.40;;;;;;5092150;27;20437;-74
2023/07/12 05:06:33;;;;;;;14.32;4.82;;;18.10;82.50;;;;;;5115433;27;20032;-74
2023/07/12 05:08:59;;;;;;;12.63;4.10;;;18.10;82.60;;;;;;5108497;28;20384;-74
2023/07/12 05:11:25;;;;;;;13.13;5.35;;;18.10;82.00;;;;;;5107992;27;20035;-75
2023/07/12 05:13:50;;;;;;;12.57;4.45;;;18.20;82.20;;;;;;5108024;28;20141;-75
2023/07/12 05:16:16;;;;;;;11.38;4.18;;;18.30;82.30;;;;;;5088895;28;20111;-75
2023/07/12 05:18:42;;;;;;;15.52;4.55;;;18.40;81.90;;;;;;5107329;28;20020;-74
2023/07/12 05:21:08;;;;;;;11.07;3.75;;;18.30;81.90;;;;;;5107804;27;20535;-74
2023/07/12 05:23:36;;;;;;;12.43;3.70;;;18.90;80.60;;;;;;5100613;28;20027;-74
2023/07/12 05:26:02;;;;;;;12.75;3.97;;;19.70;78.10;;;;;;5107575;27;20023;-75
2023/07/12 05:28:28;;;;;;;12.52;3.42;;;20.80;74.00;;;;;;5107378;28;20024;-75
2023/07/12 05:30:53;;;;;;;11.07;3.30;;;21.90;70.90;;;;;;5107448;27;20088;-74
2023/07/12 05:33:19;;;;;;;14.25;3.40;;;22.70;67.50;;;;;;5089064;28;20035;-74
2023/07/12 05:35:46;;;;;;;14.07;3.20;;;23.20;63.80;;;;;;5107384;27;20453;-75
2023/07/12 05:38:12;;;;;;;13.02;3.40;;;23.50;63.40;;;;;;5107439;28;20035;-74
2023/07/12 05:40:38;;;;;;;11.32;3.15;;;23.70;62.10;;;;;;5106465;27;20035;-75
2023/07/12 05:43:03;;;;;;;15.25;3.30;;;23.90;61.10;;;;;;5107724;28;20107;-75
2023/07/12 05:45:29;;;;;;;12.38;3.55;;;23.90;61.20;;;;;;5107543;28;20040;-75
2023/07/12 05:47:55;;;;;;;11.23;3.15;;;23.30;62.60;;;;;;5104755;28;20053;-75
2023/07/12 05:50:21;;;;;;;12.50;3.95;;;23.40;62.70;;;;;;5096227;27;20024;-75
2023/07/12 05:52:47;;;;;;;15.90;3.30;;;23.90;62.30;;;;;;5117760;27;20023;-74
2023/07/12 05:55:17;;;;;;;13.85;3.15;;;24.10;60.60;;;;;;5106757;28;20110;-74
2023/07/12 05:57:43;;;;;;;13.07;3.40;;;24.20;60.80;;;;;;5106891;28;20034;-74
2023/07/12 06:00:10;;;;;;;13.40;3.63;;;23.80;60.80;;;;;;5107106;27;20028;-74
2023/07/12 06:02:37;;;;;;;13.30;3.30;;;22.90;63.90;;;;;;5105898;28;20024;-75
2023/07/12 06:05:04;;;;;;;15.25;4.20;;;22.10;66.70;;;;;;5106802;28;20289;-75
2023/07/12 06:07:30;;;;;;;15.48;3.78;;;21.60;68.40;;;;;;5105560;28;20020;-74
2023/07/12 06:09:55;;;;;;;16.50;4.28;;;21.10;69.50;;;;;;5105655;27;20043;-74
2023/07/12 06:12:21;;;;;;;12.48;4.28;;;20.90;71.20;;;;;;5106497;28;20023;-74
2023/07/12 06:14:47;;;;;;;10.20;3.13;;;20.60;72.40;;;;;;5087314;28;20460;-74
2023/07/12 06:17:12;;;;;;;12.40;4.05;;;20.60;72.20;;;;;;5106433;28;20122;-74
2023/07/12 06:19:38;;;;;;;15.45;4.18;;;20.40;72.60;;;;;;5107272;28;20349;-75
2023/07/12 06:22:04;;;;;;;16.48;4.28;;;20.30;73.10;;;;;;5105938;27;20028;-74
2023/07/12 06:24:30;;;;;;;15.98;4.03;;;20.20;73.00;;;;;;5106767;28;20036;-74
2023/07/12 06:26:55;;;;;;;12.60;4.00;;;20.20;73.30;;;;;;5105867;28;20024;-74
2023/07/12 06:29:21;;;;;;;17.98;3.88;;;20.40;73.30;;;;;;5106990;28;20055;-74
2023/07/12 06:31:47;;;;;;;17.40;4.50;;;20.20;73.20;;;;;;5105860;27;20449;-74
2023/07/12 06:34:13;;;;;;;13.60;4.70;;;20.50;72.90;;;;;;5106162;28;20420;-74
2023/07/12 06:36:38;;;;;;;14.50;4.47;;;20.60;72.50;;;;;;5105252;28;20128;-74
2023/07/12 06:39:04;;;;;;;16.02;4.38;;;20.30;72.90;;;;;;5117637;27;20080;-74
2023/07/12 06:41:30;;;;;;;13.45;4.22;;;20.50;73.40;;;;;;5105882;28;20454;-74
2023/07/12 06:43:56;;;;;;;14.60;3.80;;;20.50;72.50;;;;;;5106505;28;20032;-75
2023/07/12 06:46:22;;;;;;;13.35;4.20;;;20.50;73.00;;;;;;5104177;28;20274;-74
2023/07/12 06:48:48;;;;;;;14.45;4.00;;;20.70;72.60;;;;;;5106653;28;20051;-74
2023/07/12 06:51:14;;;;;;;12.88;3.78;;;20.80;72.20;;;;;;5107026;27;20054;-74
2023/07/12 06:53:40;;;;;;;14.65;4.10;;;20.80;71.40;;;;;;5116125;27;20055;-74
2023/07/12 06:56:06;;;;;;;12.48;3.92;;;20.70;71.70;;;;;;5105254;28;20428;-74
2023/07/12 06:58:32;;;;;;;11.68;3.67;;;20.50;71.50;;;;;;5112946;27;20022;-75
2023/07/12 07:00:58;;;;;;;14.90;4.82;;;20.30;71.90;;;;;;5106109;27;20028;-74
2023/07/12 07:03:23;;;;;;;15.40;4.32;;;20.10;72.40;;;;;;5106974;28;20024;-74
2023/07/12 07:05:49;;;;;;;14.73;3.58;;;20.10;72.20;;;;;;5105799;27;20028;-75
2023/07/12 07:08:17;;;;;;;15.05;4.18;;;20.20;72.70;;;;;;5106135;28;20140;-74
2023/07/12 07:10:47;;;;;;;17.23;3.90;;;20.50;71.30;;;;;;5105049;27;20096;-74
2023/07/12 07:13:13;;;;;;;16.20;4.18;;;20.60;71.60;;;;;;5108635;28;20045;-74
2023/07/12 07:15:38;;;;;;;14.18;4.68;;;20.80;70.50;;;;;;5104395;28;20508;-74
2023/07/12 07:18:04;;;;;;;17.38;4.32;;;20.80;70.40;;;;;;5110750;28;20034;-74
2023/07/12 07:20:30;;;;;;;19.50;4.43;;;20.90;70.30;;;;;;5104205;28;20123;-75
2023/07/12 07:22:56;;;;;;;11.60;3.55;;;21.00;70.10;;;;;;5099255;28;20038;-74
2023/07/12 07:25:24;;;;;;;14.85;5.75;;;20.90;69.00;;;;;;5109790;27;20028;-74
2023/07/12 07:27:50;;;;;;;13.32;4.32;;;20.70;69.60;;;;;;5110286;28;20019;-74
2023/07/12 07:30:16;;;;;;;15.80;3.95;;;20.60;70.20;;;;;;5090787;28;20048;-74
2023/07/12 07:32:41;;;;;;;13.40;4.35;;;20.40;71.00;;;;;;5110132;28;20089;-75
2023/07/12 07:35:08;;;;;;;13.30;3.58;;;20.50;70.50;;;;;;5109884;28;20031;-74
2023/07/12 07:37:34;;;;;;;12.15;3.80;;;20.70;71.10;;;;;;5111547;27;20029;-75
2023/07/12 07:39:59;;;;;;;14.25;3.88;;;20.70;69.50;;;;;;5119978;27;20042;-74
2023/07/12 07:42:25;;;;;;;12.45;3.75;;;20.80;69.40;;;;;;5109555;27;20039;-75
2023/07/12 07:44:51;;;;;;;17.30;3.83;;;21.00;68.60;;;;;;5109576;28;20456;-74
2023/07/12 07:47:16;;;;;;;12.82;3.63;;;21.00;67.60;;;;;;5109035;28;20484;-74
2023/07/12 07:49:42;;;;;;;13.07;3.70;;;20.90;68.40;;;;;;5109764;28;20019;-74
2023/07/12 07:52:07;;;;;;;15.52;3.67;;;21.10;68.20;;;;;;5108759;27;20103;-73
2023/07/12 07:54:33;;;;;;;12.55;3.80;;;21.00;67.00;;;;;;5109460;28;20019;-74
2023/07/12 07:56:59;;;;;;;16.45;3.78;;;21.10;67.90;;;;;;5109536;28;20096;-73
2023/07/12 07:59:24;;;;;;;14.27;3.60;;;21.60;65.50;;;;;;5109656;27;20408;-74
2023/07/12 08:01:50;;;;;;;11.70;3.05;;;21.80;65.40;;;;;;5109526;27;20055;-74
2023/07/12 08:04:16;;;;;;;31.38;6.25;;;22.00;65.10;;;;;;5108663;28;20475;-74
2023/07/12 08:06:41;;;;;;;13.63;3.92;;;22.30;64.60;;;;;;5089941;28;20036;-73
2023/07/12 08:09:07;;;;;;;11.75;2.80;;;22.10;63.20;;;;;;5109151;28;20414;-73
2023/07/12 08:11:33;;;;;;;11.18;3.00;;;21.90;63.70;;;;;;5108978;27;20035;-74
2023/07/12 08:13:59;;;;;;;12.32;3.00;;;22.10;63.60;;;;;;5101453;28;20016;-74
2023/07/12 08:16:29;;;;;;;7.80;2.53;;;21.90;63.80;;;;;;5097326;27;20089;-75
2023/07/12 08:18:55;;;;;;;13.65;3.95;;;21.90;62.40;;;;;;5108153;28;20475;-74
2023/07/12 08:21:21;;;;;;;12.38;3.40;;;21.70;63.30;;;;;;5108543;27;20336;-74
2023/07/12 08:23:47;;;;;;;10.98;3.28;;;21.80;63.60;;;;;;5108890;28;20075;-74
2023/07/12 08:26:14;;;;;;;12.38;3.00;;;21.60;65.60;;;;;;5108051;28;20028;-74
2023/07/12 08:28:40;;;;;;;13.90;3.30;;;21.40;65.20;;;;;;5108431;28;20115;-76
2023/07/12 08:31:05;;;;;;;11.02;3.50;;;21.30;66.30;;;;;;5108285;27;20126;-75
2023/07/12 08:33:31;;;;;;;12.70;3.53;;;21.10;66.40;;;;;;5109727;28;20337;-75
2023/07/12 08:35:57;;;;;;;10.60;3.17;;;21.10;65.30;;;;;;5107841;27;20035;-75
2023/07/12 08:38:22;;;;;;;13.43;3.63;;;21.30;65.60;;;;;;5109226;28;20077;-74
2023/07/12 08:40:50;;;;;;;9.88;2.53;;;21.90;64.70;;;;;;5108015;27;20036;-75
2023/07/12 08:43:22;;;;;;;11.10;3.10;;;22.60;63.00;;;;;;5090262;28;20031;-74
2023/07/12 08:45:50;;;;;;;10.10;2.85;;;22.80;60.90;;;;;;5089920;28;20031;-75
2023/07/12 08:48:22;;;;;;;12.52;4.28;;;23.00;59.00;;;;;;5115450;27;20165;-74
2023/07/12 08:50:49;;;;;;;13.27;3.55;;;22.90;59.60;;;;;;5108747;27;20020;-75
2023/07/12 08:53:22;;;;;;;10.63;3.17;;;22.70;60.00;;;;;;5117474;27;20023;-75
2023/07/12 08:55:49;;;;;;;9.40;2.70;;;22.00;61.00;;;;;;5107985;28;20472;-75
2023/07/12 08:58:25;;;;;;;10.60;2.85;;;21.90;61.40;;;;;;5108589;27;20360;-74
2023/07/12 09:01:14;;;;;;;7.88;2.53;;;22.10;61.10;;;;;;5108128;27;20040;-74
2023/07/12 09:03:40;;;;;;;8.38;2.50;;;22.50;61.20;;;;;;5078390;28;20089;-75
2023/07/12 09:06:14;;;;;;;7.80;2.47;;;22.90;60.20;;;;;;5107839;27;20031;-74
2023/07/12 09:08:50;;;;;;;10.55;3.10;;;23.30;58.00;;;;;;5107777;28;20051;-74
2023/07/12 09:11:27;;;;;;;7.95;2.70;;;23.60;58.10;;;;;;5107909;27;20035;-74
2023/07/12 09:13:55;;;;;;;8.60;2.50;;;23.20;57.50;;;;;;5107272;28;20023;-74
2023/07/12 09:16:39;;;;;;;10.35;2.88;;;22.90;58.00;;;;;;5108096;27;20031;-74
2023/07/12 09:19:16;;;;;;;7.30;2.17;;;22.40;59.80;;;;;;5108030;28;20392;-74
2023/07/12 09:21:50;;;;;;;8.32;2.53;;;22.50;59.80;;;;;;5103107;28;20524;-74
2023/07/12 09:24:38;;;;;;;;;;;22.80;57.60;;;;;;5109013;28;20033;-74
2023/07/12 09:27:16;;;;;;;6.43;2.20;;;23.10;57.90;;;;;;5107336;27;19987;-74
2023/07/12 09:29:42;;;;;;;7.78;2.80;;;23.50;56.20;;;;;;5107608;28;20363;-74
2023/07/12 09:32:19;;;;;;;6.68;2.05;;;24.00;56.00;;;;;;5107013;28;20028;-74
2023/07/12 09:34:47;;;;;;;6.65;2.40;;;24.00;55.40;;;;;;5088734;28;20024;-75
2023/07/12 09:37:18;;;;;;;8.15;2.42;;;23.40;54.90;;;;;;5088642;28;20028;-75
2023/07/12 09:39:58;;;;;;;9.07;2.75;;;22.80;57.10;;;;;;5088784;28;20016;-74
2023/07/12 09:42:26;;;;;;;8.45;2.40;;;23.30;56.70;;;;;;5108879;27;20055;-75
2023/07/12 09:44:52;;;;;;;8.40;2.47;;;23.90;55.80;;;;;;5107723;28;20030;-75
2023/07/12 09:47:28;;;;;;;7.25;2.38;;;24.00;54.30;;;;;;5107145;27;20580;-76
2023/07/12 09:49:59;;;;;;;5.85;1.45;;;23.90;53.60;;;;;;5107019;28;20500;-76
2023/07/12 09:52:31;;;;;;;7.70;2.42;;;23.50;53.60;;;;;;5132757;27;20027;-76
2023/07/12 09:55:15;;;;;;;4.60;1.83;;;23.50;53.30;;;;;;5095398;28;20028;-76
2023/07/12 09:58:02;;;;;;;5.03;1.48;;;23.30;52.40;;;;;;5107142;28;20540;-75
2023/07/12 10:00:37;;;;;;;5.57;2.03;;;23.60;53.10;;;;;;5106493;27;20028;-75
2023/07/12 10:03:26;;;;;;;5.13;1.75;;;23.50;53.80;;;;;;5097258;28;20022;-76
2023/07/12 10:06:22;;;;;;;8.15;2.03;;;23.70;54.00;;;;;;5105840;27;20031;-75
2023/07/12 10:08:51;;;;;;;7.00;1.65;;;23.80;53.50;;;;;;5106409;28;20019;-75
2023/07/12 10:11:43;;;;;;;9.05;1.70;;;24.00;53.40;;;;;;5106734;27;20366;-76
2023/07/12 10:14:12;;;;;;;7.75;2.28;;;23.40;52.00;;;;;;5079431;28;20024;-75
2023/07/12 10:16:44;;;;;;;4.55;1.58;;;23.00;53.60;;;;;;5087107;28;20074;-76
2023/07/12 10:19:22;;;;;;;9.15;2.38;;;23.00;54.90;;;;;;5107915;28;20107;-75
2023/07/12 10:21:54;;;;;;;7.30;2.03;;;23.00;54.70;;;;;;5109080;27;20031;-75
2023/07/12 10:24:28;;;;;;;9.48;2.22;;;23.50;54.60;;;;;;5116432;27;20028;-75
2023/07/12 10:26:54;;;;;;;6.03;1.60;;;24.00;53.20;;;;;;5105513;28;20027;-75
2023/07/12 10:29:26;;;;;;;5.68;1.70;;;24.50;51.80;;;;;;5107169;28;20024;-76
2023/07/12 10:31:57;;;;;;;9.00;2.03;;;24.80;50.40;;;;;;5087345;28;20484;-75
2023/07/12 10:34:25;;;;;;;7.38;1.95;;;24.30;50.20;;;;;;5107644;27;20479;-75
2023/07/12 10:36:56;;;;;;;9.10;2.20;;;24.40;51.50;;;;;;5093763;28;20480;-76
2023/07/12 10:39:24;;;;;;;7.95;1.85;;;24.50;51.50;;;;;;5107537;27;20571;-76
2023/07/12 10:42:07;;;;;;;6.07;1.80;;;24.60;49.50;;;;;;5105747;27;20471;-75
2023/07/12 10:44:37;;;;;;;7.40;1.65;;;24.90;49.60;;;;;;5108922;27;20737;-76
2023/07/12 10:47:09;;;;;;;7.18;1.70;;;25.30;48.80;;;;;;5106385;27;20028;-76
2023/07/12 10:49:43;;;;;;;7.00;1.88;;;25.60;49.00;;;;;;5105853;28;20081;-76
2023/07/12 10:52:12;;;;;;;9.82;1.58;;;25.20;46.40;;;;;;5115827;27;20118;-75
2023/07/12 10:54:42;;;;;;;5.90;1.40;;;25.30;46.30;;;;;;5106270;28;20028;-75
2023/07/12 10:57:20;;;;;;;8.13;1.52;;;25.60;45.90;;;;;;5106915;27;20467;-75
2023/07/12 10:59:46;;;;;;;4.05;1.50;;;25.90;46.00;;;;;;5099087;28;20054;-76
2023/07/12 11:02:27;;;;;;;4.25;1.23;;;25.80;45.10;;;;;;5087170;28;20031;-76
2023/07/12 11:04:53;;;;;;;5.93;1.70;;;25.80;45.50;;;;;;5105911;28;20031;-76
2023/07/12 11:07:18;;;;;;;7.05;1.92;;;25.30;46.80;;;;;;5105639;27;20068;-76
2023/07/12 11:09:47;;;;;;;7.40;1.60;;;25.10;48.60;;;;;;5105335;28;20024;-76
2023/07/12 11:12:13;;;;;;;5.28;1.45;;;25.00;48.10;;;;;;5087306;28;20032;-74
2023/07/12 11:14:38;;;;;;;7.55;1.60;;;24.30;47.20;;;;;;5105981;28;20455;-74
2023/07/12 11:17:07;;;;;;;6.78;2.00;;;24.00;48.80;;;;;;5104980;28;20043;-75
2023/07/12 11:20:01;;;;;;;5.97;1.55;;;23.70;50.10;;;;;;5106013;28;20023;-75
2023/07/12 11:22:54;;;;;;;8.47;2.07;;;24.00;50.20;;;;;;5071835;28;20356;-74
2023/07/12 11:25:29;;;;;;;5.13;1.50;;;23.70;51.40;;;;;;5104967;28;20024;-75
2023/07/12 11:28:04;;;;;;;6.85;1.65;;;24.30;49.50;;;;;;5087293;28;20101;-76
2023/07/12 11:30:35;;;;;;;6.55;1.70;;;24.30;49.80;;;;;;5104607;28;20036;-76
2023/07/12 11:33:30;;;;;;;6.13;1.85;;;24.00;50.50;;;;;;5084658;28;20020;-76
2023/07/12 11:36:09;;;;;;;7.82;2.15;;;23.90;50.20;;;;;;5099339;28;20506;-76
2023/07/12 11:38:37;;;;;;;7.35;1.92;;;24.10;49.60;;;;;;5106927;28;20290;-76
2023/07/12 11:41:26;;;;;;;7.70;1.85;;;24.30;49.20;;;;;;5105255;28;20024;-75
2023/07/12 11:44:01;;;;;;;6.93;1.63;;;24.50;48.20;;;;;;5097667;28;20294;-75
2023/07/12 11:46:33;;;;;;;5.00;1.40;;;25.00;48.60;;;;;;5103214;28;20399;-74
2023/07/12 11:49:03;;;;;;;5.25;1.27;;;25.60;47.40;;;;;;5105837;28;20073;-74
2023/07/12 11:51:36;;;;;;;6.80;1.50;;;25.90;45.80;;;;;;5104946;28;20042;-74
2023/07/12 11:54:20;;;;;;;4.22;1.48;;;26.10;44.70;;;;;;5105354;28;20030;-74
2023/07/12 11:56:49;;;;;;;6.05;1.48;;;26.20;45.00;;;;;;5102221;28;20032;-74
2023/07/12 11:59:21;;;;;;;5.68;1.42;;;26.30;43.30;;;;;;5107650;28;20039;-75
2023/07/12 12:01:49;;;;;;;5.70;1.50;;;26.30;42.00;;;;;;5109076;28;20031;-75
2023/07/12 12:04:27;;;;;;;9.10;1.40;;;26.60;42.00;;;;;;5098624;28;20106;-75
2023/07/12 12:06:59;;;;;;;6.22;1.63;;;26.80;43.50;;;;;;5109390;27;20190;-75
2023/07/12 12:09:30;;;;;;;6.28;1.58;;;26.60;42.00;;;;;;5109318;28;20016;-75
2023/07/12 12:11:58;;;;;;;6.07;1.67;;;26.60;42.40;;;;;;5090038;28;20435;-75
2023/07/12 12:14:29;;;;;;;6.45;1.60;;;26.10;43.00;;;;;;5109197;28;20023;-75
2023/07/12 12:16:56;;;;;;;6.85;1.48;;;26.50;43.40;;;;;;5107850;28;20076;-75
2023/07/12 12:19:30;;;;;;;7.25;1.52;;;26.60;40.40;;;;;;5089998;28;20902;-75
2023/07/12 12:22:06;;;;;;;7.38;1.40;;;26.70;41.10;;;;;;5108415;27;20088;-75
2023/07/12 12:24:57;;;;;;;6.97;1.63;;;26.90;41.60;;;;;;5109705;28;20032;-75
2023/07/12 12:27:36;;;;;;;6.38;1.50;;;27.00;41.70;;;;;;5098307;28;20027;-75
2023/07/12 12:30:19;;;;;;;6.97;1.50;;;26.80;40.40;;;;;;5108331;28;20588;-75
2023/07/12 12:33:04;;;;;;;7.63;1.50;;;26.70;42.00;;;;;;5103663;28;20020;-75
2023/07/12 12:35:30;;;;;;;7.38;1.80;;;26.10;42.90;;;;;;5099531;27;20040;-75
2023/07/12 12:38:10;;;;;;;5.72;1.33;;;25.70;44.10;;;;;;5109684;27;20062;-75
2023/07/12 12:40:46;;;;;;;4.72;1.45;;;25.60;42.30;;;;;;5108525;28;20043;-75
2023/07/12 12:43:18;;;;;;;5.75;1.45;;;25.30;42.90;;;;;;5107941;28;20588;-75
2023/07/12 12:45:43;;;;;;;7.70;1.90;;;25.60;43.00;;;;;;5108273;27;20076;-75
2023/07/12 12:48:12;;;;;;;7.82;1.75;;;26.10;42.00;;;;;;5108396;27;20023;-75
2023/07/12 12:50:39;;;;;;;5.20;1.50;;;26.00;40.80;;;;;;5107695;28;20023;-75